Time;durP1;ratioP1;P1;durP2;ratioP2;P2;SDS_P1;SDS_P2;PMS_P1;PMS_P2;Temp;Humidity;BMP_temperature;BMP_pressure;BME280_temperature;BME280_humidity;BME280_pressure;Samples;Min_cycle;Max_cycle;Signal;HPM_P1;HPM_P2
2021/06/14 00:02:05;;;;;;;1.05;0.80;;;23.80;47.40;;;;;;5011994;28;20385;-69
2021/06/14 00:04:32;;;;;;;1.33;0.77;;;23.80;47.40;;;;;;5011519;28;20983;-68
2021/06/14 00:06:58;;;;;;;1.00;0.60;;;23.70;47.40;;;;;;5010625;28;20382;-68
2021/06/14 00:09:25;;;;;;;1.40;0.80;;;23.70;47.40;;;;;;5011891;28;20396;-69
2021/06/14 00:11:54;;;;;;;1.30;0.77;;;23.70;47.40;;;;;;5011998;28;20447;-69
2021/06/14 00:14:20;;;;;;;1.00;0.77;;;23.70;47.30;;;;;;5011853;28;20393;-69
2021/06/14 00:16:46;;;;;;;1.33;0.80;;;23.70;47.30;;;;;;5011564;28;20415;-69
2021/06/14 00:19:13;;;;;;;1.65;0.77;;;23.70;47.40;;;;;;5010562;28;20433;-68
2021/06/14 00:21:39;;;;;;;1.20;0.80;;;23.70;47.40;;;;;;5008527;28;20495;-69
2021/06/14 00:24:06;;;;;;;1.20;0.73;;;23.70;47.50;;;;;;5011747;28;20424;-67
2021/06/14 00:26:32;;;;;;;1.20;0.77;;;23.70;47.40;;;;;;5010495;28;20396;-69
2021/06/14 00:28:58;;;;;;;1.00;0.70;;;23.70;47.50;;;;;;5010972;28;20404;-69
2021/06/14 00:31:24;;;;;;;1.35;0.90;;;23.70;47.40;;;;;;5011655;28;20393;-69
2021/06/14 00:33:50;;;;;;;1.33;0.80;;;23.70;47.40;;;;;;5011773;28;20392;-69
2021/06/14 00:36:15;;;;;;;1.20;0.80;;;23.70;47.30;;;;;;5026818;28;20396;-68
2021/06/14 00:38:41;;;;;;;1.17;0.70;;;23.70;47.40;;;;;;5025880;28;20421;-67
2021/06/14 00:41:08;;;;;;;1.38;0.90;;;23.60;47.30;;;;;;5025784;28;20475;-69
2021/06/14 00:43:35;;;;;;;1.27;0.85;;;23.60;47.30;;;;;;5010924;28;20416;-68
2021/06/14 00:46:00;;;;;;;1.00;0.70;;;23.60;47.30;;;;;;5011387;28;20404;-68
2021/06/14 00:48:26;;;;;;;1.02;0.70;;;23.60;47.30;;;;;;5011599;28;20381;-69
2021/06/14 00:50:57;;;;;;;1.25;0.90;;;23.60;47.30;;;;;;5011166;28;20805;-69
2021/06/14 00:53:34;;;;;;;1.17;0.70;;;23.60;47.50;;;;;;5011432;28;20404;-69
2021/06/14 00:56:02;;;;;;;1.20;0.77;;;23.60;47.30;;;;;;5011232;28;20900;-69
2021/06/14 00:58:29;;;;;;;1.40;0.90;;;23.60;47.30;;;;;;5011412;28;20451;-69
2021/06/14 01:00:55;;;;;;;1.75;0.85;;;23.60;47.30;;;;;;5011109;28;20789;-69
2021/06/14 01:03:22;;;;;;;1.48;0.77;;;23.60;47.30;;;;;;5011068;28;20404;-65
2021/06/14 01:05:51;;;;;;;1.33;0.90;;;23.60;47.30;;;;;;5010919;28;20769;-69
2021/06/14 01:08:17;;;;;;;1.25;0.80;;;23.60;47.30;;;;;;5014887;28;20397;-69
2021/06/14 01:10:44;;;;;;;1.67;0.90;;;23.60;47.30;;;;;;5013321;28;20476;-69
2021/06/14 01:13:16;;;;;;;1.45;0.80;;;23.60;47.30;;;;;;5015219;28;20824;-69
2021/06/14 01:16:00;;;;;;;1.60;0.90;;;23.50;47.10;;;;;;5014849;28;20488;-67
2021/06/14 01:18:38;;;;;;;1.60;0.80;;;23.50;47.20;;;;;;5014941;28;20393;-69
2021/06/14 01:21:18;;;;;;;1.10;0.80;;;23.50;47.20;;;;;;5014631;28;20401;-68
2021/06/14 01:23:48;;;;;;;1.35;0.90;;;23.50;47.30;;;;;;5014736;28;20412;-69
2021/06/14 01:26:21;;;;;;;1.65;1.15;;;23.50;47.40;;;;;;5013140;28;20405;-69
2021/06/14 01:28:49;;;;;;;1.30;0.90;;;23.50;47.30;;;;;;5014207;28;21070;-69
2021/06/14 01:31:19;;;;;;;1.20;0.82;;;23.50;47.30;;;;;;5014617;28;20393;-69
2021/06/14 01:33:46;;;;;;;1.33;0.90;;;23.50;47.40;;;;;;5014642;28;20395;-69
2021/06/14 01:36:25;;;;;;;1.40;0.70;;;23.40;47.30;;;;;;5014568;28;20423;-69
2021/06/14 01:38:52;;;;;;;1.30;0.80;;;23.50;47.20;;;;;;5012865;28;20401;-69
2021/06/14 01:41:19;;;;;;;1.42;0.90;;;23.50;47.30;;;;;;5014479;28;20396;-69
2021/06/14 01:43:46;;;;;;;1.80;1.10;;;23.40;47.10;;;;;;5014138;28;20747;-69
2021/06/14 01:46:17;;;;;;;1.33;0.90;;;23.40;47.20;;;;;;5014385;28;20437;-69
2021/06/14 01:48:44;;;;;;;1.65;0.80;;;23.50;47.20;;;;;;5014215;28;20384;-69
2021/06/14 01:51:11;;;;;;;1.33;0.82;;;23.40;47.10;;;;;;5014183;28;20404;-69
2021/06/14 01:53:38;;;;;;;1.83;0.95;;;23.40;47.10;;;;;;5014167;28;20380;-69
2021/06/14 01:56:06;;;;;;;1.20;0.95;;;23.40;47.20;;;;;;5014043;28;20400;-69
2021/06/14 01:58:33;;;;;;;1.50;0.93;;;23.40;47.20;;;;;;5014003;28;20924;-67
2021/06/14 02:01:00;;;;;;;1.40;1.00;;;23.40;47.20;;;;;;5013869;28;20944;-69
2021/06/14 02:03:28;;;;;;;1.10;0.90;;;23.40;47.20;;;;;;5029358;28;20397;-69
2021/06/14 02:05:55;;;;;;;1.52;0.88;;;23.40;47.20;;;;;;5014043;28;20924;-68
2021/06/14 02:08:22;;;;;;;1.55;0.88;;;23.40;47.20;;;;;;5012695;28;20904;-69
2021/06/14 02:10:50;;;;;;;1.13;0.85;;;23.40;47.20;;;;;;5013217;28;20440;-69
2021/06/14 02:13:18;;;;;;;1.50;0.90;;;23.40;47.20;;;;;;5013286;28;20399;-69
2021/06/14 02:15:43;;;;;;;1.60;0.98;;;23.40;47.20;;;;;;5013596;28;20403;-68
2021/06/14 02:18:11;;;;;;;1.33;1.10;;;23.40;47.30;;;;;;5013321;28;20393;-69
2021/06/14 02:20:39;;;;;;;1.73;0.80;;;23.40;47.20;;;;;;5013553;28;20396;-69
2021/06/14 02:23:05;;;;;;;1.48;0.90;;;23.40;47.30;;;;;;5013525;28;20400;-69
2021/06/14 02:25:30;;;;;;;1.35;0.90;;;23.30;47.20;;;;;;5013500;28;20409;-69
2021/06/14 02:27:56;;;;;;;1.20;0.80;;;23.30;47.10;;;;;;5013653;28;20888;-69
2021/06/14 02:30:25;;;;;;;1.55;0.90;;;23.30;47.10;;;;;;5013433;28;20409;-69
2021/06/14 02:32:51;;;;;;;1.20;0.80;;;23.30;47.10;;;;;;5013140;28;20972;-69
2021/06/14 02:35:17;;;;;;;1.45;0.90;;;23.30;47.10;;;;;;5013311;28;20492;-69
2021/06/14 02:37:54;;;;;;;1.50;0.90;;;23.30;47.10;;;;;;5013435;28;20472;-67
2021/06/14 02:40:25;;;;;;;1.20;0.90;;;23.30;46.90;;;;;;5013336;28;20393;-69
2021/06/14 02:42:51;;;;;;;1.60;0.90;;;23.30;47.00;;;;;;5012777;28;20389;-69
2021/06/14 02:45:17;;;;;;;1.60;1.00;;;23.30;47.00;;;;;;5012927;28;20483;-70
2021/06/14 02:47:46;;;;;;;1.15;0.85;;;23.30;47.00;;;;;;5028554;28;20385;-67
2021/06/14 02:50:14;;;;;;;1.42;0.80;;;23.30;47.00;;;;;;5028664;28;20427;-68
2021/06/14 02:52:41;;;;;;;1.20;0.87;;;23.30;47.00;;;;;;5012957;28;20412;-69
2021/06/14 02:55:17;;;;;;;1.30;0.80;;;23.20;46.90;;;;;;5012761;28;20389;-69
2021/06/14 02:57:52;;;;;;;1.90;0.95;;;23.30;47.00;;;;;;5013228;28;20391;-68
2021/06/14 03:00:20;;;;;;;1.50;0.90;;;23.30;47.00;;;;;;5012964;28;20474;-69
2021/06/14 03:02:48;;;;;;;1.70;1.00;;;23.20;46.90;;;;;;5012601;28;20397;-69
2021/06/14 03:05:14;;;;;;;1.40;0.70;;;23.20;46.90;;;;;;5012783;28;20425;-69
2021/06/14 03:07:41;;;;;;;1.80;0.90;;;23.20;47.00;;;;;;5012891;28;20798;-67
2021/06/14 03:10:08;;;;;;;3.13;1.08;;;23.20;47.30;;;;;;5012768;28;20881;-68
2021/06/14 03:12:34;;;;;;;1.83;0.70;;;23.20;47.60;;;;;;5027951;28;20401;-68
2021/06/14 03:15:05;;;;;;;1.13;0.80;;;23.20;47.70;;;;;;5012141;28;20454;-67
2021/06/14 03:17:35;;;;;;;1.55;0.90;;;23.20;47.90;;;;;;5012723;28;20389;-69
2021/06/14 03:20:04;;;;;;;3.00;1.02;;;23.20;48.00;;;;;;5012758;28;20908;-68
2021/06/14 03:22:30;;;;;;;3.60;0.90;;;23.20;49.50;;;;;;5012765;28;20967;-64
2021/06/14 03:24:56;;;;;;;2.03;0.85;;;23.30;49.60;;;;;;5011982;28;20682;-68
2021/06/14 03:27:23;;;;;;;4.25;0.90;;;23.40;49.70;;;;;;5010741;28;20450;-68
2021/06/14 03:29:50;;;;;;;4.22;1.20;;;23.40;50.10;;;;;;5009738;28;20762;-68
2021/06/14 03:32:17;;;;;;;1.65;0.80;;;23.40;50.00;;;;;;5014196;28;20448;-65
2021/06/14 03:34:44;;;;;;;2.15;1.00;;;23.40;49.60;;;;;;5018635;28;20394;-66
2021/06/14 03:37:10;;;;;;;3.40;0.93;;;23.40;50.80;;;;;;5010681;28;20401;-67
2021/06/14 03:39:38;;;;;;;6.53;1.20;;;23.40;50.60;;;;;;5012185;28;20391;-68
2021/06/14 03:42:04;;;;;;;1.98;0.98;;;23.40;50.70;;;;;;5012111;28;20416;-68
2021/06/14 03:44:30;;;;;;;2.42;1.00;;;23.50;51.00;;;;;;5012026;28;20428;-68
2021/06/14 03:46:56;;;;;;;2.43;0.90;;;23.50;51.10;;;;;;5011534;28;20873;-68
2021/06/14 03:49:21;;;;;;;3.00;1.00;;;23.50;51.00;;;;;;5012174;28;20389;-69
2021/06/14 03:51:47;;;;;;;1.20;0.80;;;23.50;50.80;;;;;;5011824;28;20389;-64
2021/06/14 03:54:13;;;;;;;3.33;1.00;;;23.60;49.90;;;;;;5010640;28;20764;-65
2021/06/14 03:56:38;;;;;;;4.53;1.20;;;23.50;49.50;;;;;;5010440;28;20754;-65
2021/06/14 03:59:04;;;;;;;4.35;1.20;;;23.50;49.40;;;;;;5010509;28;20404;-68
2021/06/14 04:01:30;;;;;;;2.27;0.90;;;23.40;49.30;;;;;;5011902;28;20885;-68
2021/06/14 04:06:41;;;;;;;3.45;1.00;;;23.40;49.30;;;;;;5012022;28;20396;-68
2021/06/14 04:09:07;;;;;;;3.23;1.13;;;23.40;49.20;;;;;;5011622;28;20388;-68
2021/06/14 04:11:32;;;;;;;5.32;1.40;;;23.40;48.80;;;;;;5011850;28;20420;-69
2021/06/14 04:13:58;;;;;;;6.18;1.30;;;23.30;48.20;;;;;;5011785;28;20412;-68
2021/06/14 04:16:24;;;;;;;4.60;1.27;;;23.30;48.30;;;;;;5011931;28;20392;-68
2021/06/14 04:18:50;;;;;;;4.35;1.17;;;23.30;48.30;;;;;;5011636;28;20421;-68
2021/06/14 04:21:16;;;;;;;4.37;1.10;;;23.30;48.20;;;;;;5010240;28;20852;-68
2021/06/14 04:23:42;;;;;;;5.15;1.38;;;23.30;48.20;;;;;;5011669;28;20421;-67
2021/06/14 04:26:09;;;;;;;4.53;1.50;;;23.30;48.10;;;;;;5011535;28;20400;-67
2021/06/14 04:28:35;;;;;;;4.50;1.50;;;23.30;47.70;;;;;;5010734;28;20385;-67
2021/06/14 04:31:01;;;;;;;4.18;1.45;;;23.30;47.10;;;;;;5011125;28;20415;-68
2021/06/14 04:33:26;;;;;;;4.57;1.40;;;23.20;46.50;;;;;;5010232;28;20904;-66
2021/06/14 04:35:52;;;;;;;4.07;1.80;;;23.20;46.20;;;;;;5011599;28;20436;-63
2021/06/14 04:38:18;;;;;;;3.20;1.57;;;23.20;46.00;;;;;;5011696;28;20385;-69
2021/06/14 04:40:44;;;;;;;3.83;1.73;;;23.20;45.90;;;;;;5011457;28;20404;-66
2021/06/14 04:43:10;;;;;;;2.05;1.40;;;23.10;45.90;;;;;;5014799;28;20392;-62
2021/06/14 04:45:36;;;;;;;2.78;1.70;;;23.10;45.90;;;;;;5014966;28;20475;-67
2021/06/14 04:48:02;;;;;;;2.95;1.58;;;23.10;46.50;;;;;;5015342;28;20376;-66
2021/06/14 04:50:28;;;;;;;2.43;1.63;;;23.10;45.80;;;;;;5014054;28;20483;-65
2021/06/14 04:52:55;;;;;;;4.85;1.90;;;23.10;45.80;;;;;;5023394;28;20405;-66
2021/06/14 04:55:20;;;;;;;4.10;1.55;;;23.10;45.50;;;;;;5034751;28;20403;-65
2021/06/14 04:57:46;;;;;;;5.77;1.90;;;23.00;45.40;;;;;;5021034;28;20400;-66
2021/06/14 05:00:12;;;;;;;4.03;1.60;;;23.00;45.70;;;;;;5030959;28;20402;-66
2021/06/14 05:02:38;;;;;;;6.18;1.70;;;23.00;46.00;;;;;;5018771;28;20426;-65
2021/06/14 05:05:05;;;;;;;7.77;1.60;;;23.00;46.00;;;;;;5049216;28;21004;-66
2021/06/14 05:07:31;;;;;;;6.65;1.80;;;23.00;46.20;;;;;;5031787;28;20437;-66
2021/06/14 05:09:57;;;;;;;6.70;1.60;;;23.00;46.20;;;;;;5033937;28;20387;-67
2021/06/14 05:12:23;;;;;;;3.50;1.50;;;23.00;46.40;;;;;;5034386;28;20394;-66
2021/06/14 05:14:49;;;;;;;3.77;1.53;;;23.00;46.70;;;;;;5034172;28;20445;-66
2021/06/14 05:17:17;;;;;;;4.25;1.70;;;23.00;46.70;;;;;;5034020;28;20733;-65
2021/06/14 05:19:43;;;;;;;5.35;1.42;;;23.10;46.70;;;;;;5034326;28;20871;-66
2021/06/14 05:22:09;;;;;;;4.75;1.50;;;23.10;46.80;;;;;;5034485;28;20419;-65
2021/06/14 05:24:34;;;;;;;4.87;1.60;;;23.10;47.00;;;;;;5033226;28;20450;-66
2021/06/14 05:27:00;;;;;;;5.38;1.63;;;23.10;47.10;;;;;;5034040;28;20486;-66
2021/06/14 05:29:26;;;;;;;3.97;1.60;;;23.10;47.10;;;;;;5034212;28;20395;-66
2021/06/14 05:31:52;;;;;;;5.20;1.60;;;23.10;47.10;;;;;;5034370;28;20463;-66
2021/06/14 05:34:17;;;;;;;2.88;1.50;;;23.10;47.10;;;;;;5034274;28;20421;-65
2021/06/14 05:36:43;;;;;;;3.07;1.30;;;23.10;47.10;;;;;;5034400;28;20985;-66
2021/06/14 05:39:08;;;;;;;3.00;1.20;;;23.20;47.20;;;;;;5034088;28;20391;-65
2021/06/14 05:41:34;;;;;;;3.63;1.30;;;23.20;47.20;;;;;;5034237;28;20483;-66
2021/06/14 05:44:00;;;;;;;3.30;1.40;;;23.20;47.20;;;;;;5033895;28;20422;-66
2021/06/14 05:46:26;;;;;;;2.33;1.20;;;23.20;47.20;;;;;;5034310;28;20383;-66
2021/06/14 05:48:51;;;;;;;2.55;1.30;;;23.20;47.20;;;;;;5033917;28;20490;-66
2021/06/14 05:51:17;;;;;;;2.13;1.10;;;23.20;47.20;;;;;;5033766;28;20400;-65
2021/06/14 05:53:43;;;;;;;3.30;1.30;;;23.20;47.20;;;;;;5031545;28;20903;-65
2021/06/14 05:56:09;;;;;;;2.77;1.43;;;23.20;47.20;;;;;;5033923;28;20426;-66
2021/06/14 05:58:34;;;;;;;2.30;1.20;;;23.20;47.20;;;;;;5033827;28;20486;-66
2021/06/14 06:01:00;;;;;;;3.03;1.30;;;23.30;47.30;;;;;;5033251;28;20449;-66
2021/06/14 06:03:26;;;;;;;2.50;1.20;;;23.30;47.20;;;;;;5033833;28;20387;-66
2021/06/14 06:05:52;;;;;;;2.30;1.13;;;23.30;47.20;;;;;;5033857;28;20383;-66
2021/06/14 06:08:17;;;;;;;2.20;1.20;;;23.30;47.20;;;;;;5033645;28;20383;-66
2021/06/14 06:10:44;;;;;;;2.80;1.20;;;23.30;47.10;;;;;;5033707;28;20457;-65
2021/06/14 06:13:10;;;;;;;2.00;1.25;;;23.30;47.20;;;;;;5032937;28;20478;-66
2021/06/14 06:15:35;;;;;;;2.00;1.10;;;23.30;47.10;;;;;;5033073;28;20479;-65
2021/06/14 06:18:01;;;;;;;2.47;1.20;;;23.30;47.10;;;;;;5033148;28;20391;-66
2021/06/14 06:20:27;;;;;;;2.60;1.20;;;23.40;47.10;;;;;;5033525;28;20466;-67
2021/06/14 06:22:53;;;;;;;1.90;1.17;;;23.30;47.10;;;;;;5033309;28;20387;-65
2021/06/14 06:25:22;;;;;;;1.98;1.10;;;23.40;47.10;;;;;;5032844;28;20419;-66
2021/06/14 06:27:48;;;;;;;2.63;1.17;;;23.40;47.10;;;;;;5048700;28;20401;-66
2021/06/14 06:30:17;;;;;;;2.10;1.30;;;23.40;47.40;;;;;;5032952;28;20386;-66
2021/06/14 06:32:42;;;;;;;1.58;0.93;;;23.40;47.10;;;;;;5048609;28;20455;-64
2021/06/14 06:35:09;;;;;;;2.80;1.00;;;23.40;47.20;;;;;;5032603;28;20529;-64
2021/06/14 06:37:35;;;;;;;1.80;1.10;;;23.40;47.20;;;;;;5033060;28;20395;-66
2021/06/14 06:40:00;;;;;;;2.03;1.10;;;23.40;47.20;;;;;;5033158;28;20390;-65
2021/06/14 06:42:26;;;;;;;2.10;1.10;;;23.40;47.20;;;;;;5033061;28;20724;-67
2021/06/14 06:44:52;;;;;;;2.70;1.30;;;23.50;47.20;;;;;;5032530;28;20459;-66
2021/06/14 06:47:18;;;;;;;1.87;1.10;;;23.50;47.20;;;;;;5032688;28;20473;-66
2021/06/14 06:49:44;;;;;;;2.13;1.10;;;23.40;47.10;;;;;;5032864;28;20524;-66
2021/06/14 06:52:13;;;;;;;1.80;1.00;;;23.50;47.20;;;;;;5032770;28;20815;-66
2021/06/14 06:54:39;;;;;;;1.83;1.00;;;23.50;47.20;;;;;;5032879;28;20482;-65
2021/06/14 06:57:05;;;;;;;1.30;1.00;;;23.50;47.20;;;;;;5032268;28;21015;-66
2021/06/14 06:59:31;;;;;;;1.90;1.03;;;23.50;47.20;;;;;;5032741;28;20760;-65
2021/06/14 07:01:56;;;;;;;2.08;1.20;;;23.50;47.20;;;;;;5032639;28;20390;-66
2021/06/14 07:04:22;;;;;;;1.90;1.00;;;23.50;47.10;;;;;;5031129;28;20422;-66
2021/06/14 07:06:48;;;;;;;1.30;0.90;;;23.50;47.20;;;;;;5032648;28;20402;-66
2021/06/14 07:09:13;;;;;;;2.30;0.90;;;23.50;47.10;;;;;;5032250;28;20434;-66
2021/06/14 07:11:40;;;;;;;1.55;1.05;;;23.50;47.10;;;;;;5032476;28;20395;-66
2021/06/14 07:14:06;;;;;;;1.63;1.00;;;23.50;47.10;;;;;;5032245;28;20423;-67
2021/06/14 07:16:34;;;;;;;1.50;0.98;;;23.50;47.10;;;;;;5032238;28;20391;-66
2021/06/14 07:19:00;;;;;;;1.30;0.97;;;23.50;47.10;;;;;;5032044;28;20399;-65
2021/06/14 07:21:26;;;;;;;2.72;1.20;;;23.50;47.00;;;;;;5031928;28;20399;-66
2021/06/14 07:23:52;;;;;;;1.92;1.10;;;23.60;47.20;;;;;;5032257;28;20403;-67
2021/06/14 07:26:18;;;;;;;1.88;1.17;;;23.60;47.10;;;;;;5032300;28;20387;-67
2021/06/14 07:28:44;;;;;;;1.80;1.08;;;23.50;47.10;;;;;;5032097;28;20394;-65
2021/06/14 07:31:10;;;;;;;2.10;1.10;;;23.50;47.10;;;;;;5030967;28;20819;-66
2021/06/14 07:33:36;;;;;;;2.15;1.10;;;23.50;47.10;;;;;;5031711;28;20390;-66
2021/06/14 07:36:04;;;;;;;1.65;1.02;;;23.60;47.10;;;;;;5031984;28;20391;-65
2021/06/14 07:38:30;;;;;;;1.67;1.00;;;23.60;47.10;;;;;;5031861;28;20391;-66
2021/06/14 07:40:56;;;;;;;1.88;1.10;;;23.60;47.10;;;;;;5031745;28;20395;-66
2021/06/14 07:43:22;;;;;;;1.77;1.20;;;23.60;47.70;;;;;;5031500;28;20817;-65
2021/06/14 07:45:49;;;;;;;2.17;1.27;;;23.60;47.10;;;;;;5031804;28;20462;-66
2021/06/14 07:48:15;;;;;;;1.73;1.10;;;23.60;47.10;;;;;;5031871;28;20498;-66
2021/06/14 07:50:43;;;;;;;1.40;1.05;;;23.60;47.10;;;;;;5031757;28;20398;-66
2021/06/14 07:53:08;;;;;;;2.22;1.23;;;23.60;47.10;;;;;;5031313;28;20478;-66
2021/06/14 07:55:36;;;;;;;1.80;1.10;;;23.60;47.10;;;;;;5031773;28;20474;-65
2021/06/14 07:58:02;;;;;;;1.40;1.07;;;23.60;47.10;;;;;;5031697;28;20432;-66
2021/06/14 08:00:28;;;;;;;1.73;1.00;;;23.60;47.10;;;;;;5031774;28;20395;-66
2021/06/14 08:02:55;;;;;;;1.98;1.30;;;23.60;47.10;;;;;;5031341;28;20790;-64
2021/06/14 08:05:21;;;;;;;1.88;1.20;;;23.60;47.10;;;;;;5031461;28;20490;-66
2021/06/14 08:07:47;;;;;;;1.70;1.00;;;23.60;47.10;;;;;;5031616;28;20441;-65
2021/06/14 08:10:16;;;;;;;1.73;1.15;;;23.60;47.10;;;;;;5031571;28;20553;-66
2021/06/14 08:12:46;;;;;;;2.13;1.05;;;23.60;47.10;;;;;;5031689;28;20433;-66
2021/06/14 08:15:25;;;;;;;1.70;1.05;;;23.60;47.10;;;;;;5031081;28;21008;-66
2021/06/14 08:17:54;;;;;;;1.60;1.05;;;23.60;47.10;;;;;;5030766;28;20392;-65
2021/06/14 08:20:44;;;;;;;2.42;1.20;;;23.60;47.10;;;;;;5031553;28;20383;-66
2021/06/14 08:25:53;;;;;;;1.73;1.10;;;23.60;47.00;;;;;;5031431;28;20449;-66
2021/06/14 08:28:19;;;;;;;1.92;1.13;;;23.60;47.00;;;;;;5031520;28;20395;-66
2021/06/14 08:30:45;;;;;;;1.40;1.10;;;23.60;47.00;;;;;;5031136;28;21091;-65
2021/06/14 08:33:11;;;;;;;2.50;1.20;;;23.70;47.10;;;;;;5030755;28;20391;-66
2021/06/14 08:35:36;;;;;;;1.50;1.07;;;23.60;47.00;;;;;;5031458;28;20406;-66
2021/06/14 08:38:03;;;;;;;1.70;1.10;;;23.60;47.00;;;;;;5031280;28;20754;-66
2021/06/14 08:40:31;;;;;;;2.42;1.20;;;23.70;47.10;;;;;;5031289;28;20953;-66
2021/06/14 08:43:08;;;;;;;1.60;1.10;;;23.60;47.00;;;;;;5030949;28;20449;-66
2021/06/14 08:45:37;;;;;;;1.60;1.10;;;23.60;47.00;;;;;;5030689;28;20791;-65
2021/06/14 08:48:05;;;;;;;1.60;1.10;;;23.70;47.00;;;;;;5030768;28;20418;-65
2021/06/14 08:50:31;;;;;;;1.92;1.13;;;23.60;47.00;;;;;;5031063;28;20787;-66
2021/06/14 08:52:57;;;;;;;1.80;1.00;;;23.60;47.00;;;;;;5030769;28;20935;-66
2021/06/14 08:55:23;;;;;;;1.50;1.00;;;23.60;47.00;;;;;;5030927;28;20795;-66
2021/06/14 08:57:50;;;;;;;2.13;1.20;;;23.60;47.00;;;;;;5029878;28;20795;-66
2021/06/14 09:00:22;;;;;;;1.50;1.20;;;23.60;47.00;;;;;;5031061;28;20803;-67
2021/06/14 09:02:48;;;;;;;1.80;1.20;;;23.60;46.90;;;;;;5030088;28;20766;-66
2021/06/14 09:05:16;;;;;;;1.48;1.00;;;23.60;46.90;;;;;;5030340;28;20470;-66
2021/06/14 09:07:43;;;;;;;1.63;0.95;;;23.60;46.90;;;;;;5031072;28;20383;-66
2021/06/14 09:10:41;;;;;;;1.70;1.20;;;23.60;47.50;;;;;;5031047;28;20887;-66
2021/06/14 09:13:15;;;;;;;1.70;1.10;;;23.60;46.90;;;;;;5030377;28;20403;-65
2021/06/14 09:15:43;;;;;;;1.50;1.00;;;23.60;46.90;;;;;;5031131;28;20414;-66
2021/06/14 09:18:26;;;;;;;1.75;1.13;;;23.60;47.50;;;;;;5031195;28;20390;-66
2021/06/14 09:21:28;;;;;;;1.83;1.00;;;23.60;46.90;;;;;;5031001;28;20394;-65
2021/06/14 09:23:57;;;;;;;1.90;1.10;;;23.60;46.90;;;;;;5008819;28;20444;-66
2021/06/14 09:26:25;;;;;;;1.70;1.00;;;23.60;46.90;;;;;;5026945;28;20940;-66
2021/06/14 09:28:57;;;;;;;2.35;1.10;;;23.70;47.00;;;;;;5032710;28;20445;-65
2021/06/14 09:31:26;;;;;;;1.65;1.02;;;23.70;47.00;;;;;;5033890;28;20761;-65
2021/06/14 09:33:51;;;;;;;1.95;1.05;;;23.70;47.00;;;;;;5033397;28;20755;-67
2021/06/14 09:36:20;;;;;;;1.67;1.15;;;23.60;46.90;;;;;;5034225;28;20880;-66
2021/06/14 09:38:46;;;;;;;1.40;1.10;;;23.60;47.00;;;;;;5034257;28;20418;-65
2021/06/14 09:41:17;;;;;;;1.90;1.20;;;23.60;47.00;;;;;;5033811;28;20877;-65
2021/06/14 09:43:50;;;;;;;1.52;1.10;;;23.60;46.90;;;;;;5034032;28;20399;-65
2021/06/14 09:46:36;;;;;;;1.67;0.90;;;23.70;47.20;;;;;;5032901;28;20400;-65
2021/06/14 09:49:04;;;;;;;2.03;1.10;;;23.60;46.90;;;;;;5033879;28;20490;-65
2021/06/14 09:51:30;;;;;;;1.77;1.08;;;23.60;46.90;;;;;;5033763;28;20417;-66
2021/06/14 09:53:58;;;;;;;2.10;1.15;;;23.60;46.90;;;;;;5033987;28;20467;-66
2021/06/14 09:56:26;;;;;;;1.80;1.05;;;23.60;46.90;;;;;;5034004;28;20410;-66
2021/06/14 09:58:55;;;;;;;1.77;1.20;;;23.60;46.90;;;;;;5033904;28;20391;-66
2021/06/14 10:01:36;;;;;;;1.75;1.20;;;23.60;46.90;;;;;;5032988;28;20398;-66
2021/06/14 10:04:09;;;;;;;1.93;1.30;;;23.60;47.00;;;;;;5033178;28;20473;-66
2021/06/14 10:06:43;;;;;;;1.83;1.25;;;23.60;47.00;;;;;;5033600;28;20423;-67
2021/06/14 10:09:11;;;;;;;1.75;1.20;;;23.60;47.00;;;;;;5033598;28;20388;-66
2021/06/14 10:11:37;;;;;;;1.63;1.02;;;23.60;47.00;;;;;;5033449;28;20387;-66
2021/06/14 10:14:13;;;;;;;1.60;1.13;;;23.60;47.00;;;;;;5032225;28;20759;-66
2021/06/14 10:16:40;;;;;;;2.05;1.10;;;23.60;47.00;;;;;;5033590;28;20396;-66
2021/06/14 10:19:08;;;;;;;1.65;1.00;;;23.60;47.00;;;;;;5033231;28;20883;-66
2021/06/14 10:21:42;;;;;;;1.63;1.03;;;23.60;47.00;;;;;;5033215;28;20935;-65
2021/06/14 10:24:11;;;;;;;1.80;1.10;;;23.60;47.10;;;;;;5033434;28;20411;-66
2021/06/14 10:26:39;;;;;;;2.08;1.20;;;23.60;47.10;;;;;;5033224;28;20422;-65
2021/06/14 10:29:07;;;;;;;1.95;1.10;;;23.60;47.10;;;;;;5032872;28;20375;-65
2021/06/14 10:31:35;;;;;;;1.60;1.20;;;23.60;47.10;;;;;;5032937;28;20435;-65
2021/06/14 10:34:01;;;;;;;2.63;1.13;;;23.60;47.10;;;;;;5033272;28;20395;-66
2021/06/14 10:36:29;;;;;;;1.70;1.30;;;23.60;47.10;;;;;;5033452;28;20383;-66
2021/06/14 10:38:57;;;;;;;2.10;1.25;;;23.60;47.10;;;;;;5032636;28;20395;-65
2021/06/14 10:41:24;;;;;;;1.75;1.30;;;23.60;47.10;;;;;;5032730;28;20440;-66
2021/06/14 10:43:51;;;;;;;2.10;1.30;;;23.60;47.10;;;;;;5032915;28;20490;-66
2021/06/14 10:46:21;;;;;;;2.20;1.15;;;23.50;47.10;;;;;;5033037;28;20851;-66
2021/06/14 10:48:48;;;;;;;1.63;1.10;;;23.60;47.20;;;;;;5032965;28;20429;-66
2021/06/14 10:51:19;;;;;;;1.90;1.27;;;23.60;47.20;;;;;;5032654;28;20389;-66
2021/06/14 10:53:51;;;;;;;2.30;1.20;;;23.50;47.20;;;;;;5032784;28;20456;-66
2021/06/14 10:56:18;;;;;;;1.80;1.10;;;23.60;47.20;;;;;;5032779;28;20779;-65
2021/06/14 10:59:01;;;;;;;1.70;1.25;;;23.60;47.20;;;;;;5032948;28;20391;-66
2021/06/14 11:01:36;;;;;;;2.17;1.30;;;23.60;47.30;;;;;;5032558;28;20390;-66
2021/06/14 11:04:03;;;;;;;1.90;1.10;;;23.60;47.20;;;;;;5032642;28;20407;-66
2021/06/14 11:06:32;;;;;;;2.00;1.27;;;23.50;47.20;;;;;;5048017;28;20404;-66
2021/06/14 11:09:05;;;;;;;2.10;1.40;;;23.60;47.30;;;;;;5032605;28;20390;-65
2021/06/14 11:11:45;;;;;;;1.75;1.17;;;23.60;47.20;;;;;;5032287;28;20399;-65
2021/06/14 11:14:12;;;;;;;2.33;1.23;;;23.60;47.30;;;;;;5032497;28;20440;-66
2021/06/14 11:16:39;;;;;;;2.38;1.35;;;23.60;47.30;;;;;;5032452;28;20395;-66
2021/06/14 11:19:08;;;;;;;2.20;1.30;;;23.50;47.20;;;;;;5032080;28;20383;-65
2021/06/14 11:21:34;;;;;;;2.20;1.20;;;23.50;47.20;;;;;;5032213;28;20733;-64
2021/06/14 11:24:11;;;;;;;1.90;1.20;;;23.60;47.30;;;;;;5032199;28;20411;-66
2021/06/14 11:26:37;;;;;;;1.80;1.30;;;23.50;47.20;;;;;;5032292;28;20432;-64
2021/06/14 11:29:17;;;;;;;2.20;1.30;;;23.60;47.30;;;;;;5032246;28;20862;-64
2021/06/14 11:32:01;;;;;;;1.88;1.20;;;23.60;47.30;;;;;;5031789;28;20391;-65
2021/06/14 11:34:35;;;;;;;1.80;1.30;;;23.60;47.30;;;;;;5031746;28;20371;-66
2021/06/14 11:37:01;;;;;;;1.92;1.20;;;23.60;47.30;;;;;;5031846;28;20392;-66
2021/06/14 11:39:27;;;;;;;1.90;1.23;;;23.60;47.30;;;;;;5031521;28;20375;-65
2021/06/14 11:41:53;;;;;;;1.60;1.10;;;23.60;47.20;;;;;;5031814;28;20485;-66
2021/06/14 11:44:30;;;;;;;1.67;1.23;;;23.60;47.20;;;;;;5031775;28;20411;-66
2021/06/14 11:47:11;;;;;;;1.70;1.20;;;23.60;47.30;;;;;;5031915;28;20388;-64
2021/06/14 11:49:37;;;;;;;2.53;1.30;;;23.60;47.30;;;;;;5031713;28;20433;-64
2021/06/14 11:52:14;;;;;;;2.22;1.30;;;23.60;47.80;;;;;;5031205;28;20395;-63
2021/06/14 11:54:40;;;;;;;1.58;1.20;;;23.60;47.20;;;;;;5031700;28;20387;-63
2021/06/14 11:57:05;;;;;;;1.87;1.23;;;23.60;47.20;;;;;;5031545;28;20391;-63
2021/06/14 11:59:33;;;;;;;1.98;1.20;;;23.60;47.20;;;;;;5031535;28;20456;-63
2021/06/14 12:02:02;;;;;;;1.50;1.10;;;23.70;47.20;;;;;;5031871;28;20392;-63
2021/06/14 12:04:28;;;;;;;1.60;1.20;;;23.60;47.20;;;;;;5031742;28;20883;-64
2021/06/14 12:06:54;;;;;;;1.70;1.02;;;23.60;47.20;;;;;;5031558;28;20827;-64
2021/06/14 12:09:26;;;;;;;1.67;1.10;;;23.70;47.20;;;;;;5031105;28;20973;-63
2021/06/14 12:12:17;;;;;;;1.88;1.20;;;23.60;47.10;;;;;;5031545;28;20395;-64
2021/06/14 12:14:53;;;;;;;1.40;1.00;;;23.70;47.10;;;;;;5030369;28;20403;-64
2021/06/14 12:17:42;;;;;;;1.95;1.10;;;23.60;47.10;;;;;;5031316;28;20871;-64
2021/06/14 12:20:10;;;;;;;2.25;1.30;;;23.70;47.10;;;;;;5031501;28;20895;-63
2021/06/14 12:22:37;;;;;;;1.70;1.20;;;23.70;47.10;;;;;;5031431;28;20395;-63
2021/06/14 12:25:13;;;;;;;2.25;1.33;;;23.70;47.10;;;;;;5031306;28;20422;-64
2021/06/14 12:27:39;;;;;;;1.55;1.17;;;23.70;47.10;;;;;;5031238;28;20387;-65
2021/06/14 12:30:11;;;;;;;1.90;1.20;;;23.70;47.10;;;;;;5031263;28;20383;-63
2021/06/14 12:32:39;;;;;;;1.80;1.15;;;23.70;47.00;;;;;;5031252;28;20478;-64
2021/06/14 12:35:08;;;;;;;1.77;1.10;;;23.70;47.00;;;;;;5031212;28;20467;-63
2021/06/14 12:37:34;;;;;;;1.70;1.20;;;23.70;47.00;;;;;;5031080;28;20398;-64
2021/06/14 12:39:59;;;;;;;1.80;1.20;;;23.70;47.00;;;;;;5031337;28;20748;-64
2021/06/14 12:42:25;;;;;;;1.83;1.15;;;23.70;47.00;;;;;;5031333;28;20755;-63
2021/06/14 12:44:55;;;;;;;1.52;1.02;;;23.70;46.90;;;;;;5031028;28;20430;-64
2021/06/14 12:47:22;;;;;;;1.60;1.05;;;23.70;46.90;;;;;;5030711;28;20387;-60
2021/06/14 12:49:49;;;;;;;1.40;0.93;;;23.70;46.90;;;;;;5030763;28;20391;-64
2021/06/14 12:52:23;;;;;;;1.90;1.20;;;23.70;46.90;;;;;;5030938;28;20525;-64
2021/06/14 12:54:49;;;;;;;1.55;1.08;;;23.70;46.90;;;;;;5031171;28;20387;-63
2021/06/14 12:57:16;;;;;;;1.52;1.02;;;23.70;46.80;;;;;;5030905;28;20387;-64
2021/06/14 12:59:42;;;;;;;1.60;1.00;;;23.70;46.90;;;;;;5030776;28;20957;-63